createdAt,value
2023-03-23T00:00:19.609Z,99.52
2023-03-23T00:01:19.584Z,99.52
2023-03-23T00:02:19.573Z,99.52
2023-03-23T00:03:19.572Z,99.11
2023-03-23T00:04:19.561Z,99.18
2023-03-23T00:05:19.567Z,99.43
2023-03-23T00:06:19.532Z,99.11
2023-03-23T00:07:19.518Z,99.43
2023-03-23T00:08:19.515Z,99.32
2023-03-23T00:09:19.496Z,99.02
2023-03-23T00:10:19.490Z,99.43
2023-03-23T00:11:19.477Z,99.18
2023-03-23T00:12:19.470Z,99.32
2023-03-23T00:13:20.458Z,99.02
2023-03-23T00:14:19.441Z,99.02
2023-03-23T00:15:19.429Z,99.18
2023-03-23T00:16:19.428Z,98.71
2023-03-23T00:17:19.407Z,98.91
2023-03-23T00:18:19.414Z,98.97
2023-03-23T00:19:19.388Z,98.50
2023-03-23T00:20:19.373Z,98.71
2023-03-23T00:21:19.380Z,98.81
2023-03-23T00:22:19.354Z,98.91
2023-03-23T00:23:19.336Z,98.81
2023-03-23T00:24:19.342Z,98.81
2023-03-23T00:25:19.343Z,98.66
2023-03-23T00:26:19.310Z,98.61
2023-03-23T00:27:19.290Z,98.56
2023-03-23T00:28:19.307Z,98.25
2023-03-23T00:29:19.277Z,98.61
2023-03-23T00:30:19.261Z,98.05
2023-03-23T00:31:19.247Z,98.56
2023-03-23T00:32:19.249Z,98.25
2023-03-23T00:33:19.251Z,97.95
2023-03-23T00:34:19.222Z,98.05
2023-03-23T00:35:19.228Z,98.25
2023-03-23T00:36:19.191Z,97.95
2023-03-23T00:37:19.204Z,98.05
2023-03-23T00:38:19.183Z,97.33
2023-03-23T00:39:19.171Z,97.24
2023-03-23T00:40:19.175Z,97.44
2023-03-23T00:41:19.135Z,96.92
2023-03-23T00:42:19.128Z,97.33
2023-03-23T00:43:19.128Z,97.44
2023-03-23T00:44:22.007Z,97.24
2023-03-23T00:45:19.097Z,97.13
2023-03-23T00:46:19.100Z,97.44
2023-03-23T00:47:19.069Z,97.24
2023-03-23T00:48:19.060Z,97.33
2023-03-23T00:49:19.056Z,97.64
2023-03-23T00:50:22.247Z,97.74
2023-03-23T00:51:20.029Z,97.54
2023-03-23T00:52:19.019Z,97.44
2023-03-23T00:53:19.027Z,97.33
2023-03-23T00:54:19.015Z,97.33
2023-03-23T00:55:18.982Z,97.54
2023-03-23T00:56:18.978Z,96.92
2023-03-23T00:57:18.957Z,97.03
2023-03-23T00:58:18.953Z,97.13
2023-03-23T00:59:18.938Z,96.42
2023-03-23T01:00:18.935Z,96.31
2023-03-23T01:01:18.921Z,96.62
2023-03-23T01:02:18.905Z,97.03
2023-03-23T01:03:18.889Z,96.31
2023-03-23T01:04:18.889Z,96.72
2023-03-23T01:05:18.867Z,96.83
2023-03-23T01:06:18.862Z,96.72
2023-03-23T01:07:18.861Z,96.62
2023-03-23T01:08:18.840Z,96.98
2023-03-23T01:09:18.850Z,96.72
2023-03-23T01:10:18.813Z,97.03
2023-03-23T01:11:18.796Z,96.01
2023-03-23T01:12:18.786Z,96.01
2023-03-23T01:13:18.796Z,95.90
2023-03-23T01:14:18.796Z,96.21
2023-03-23T01:15:18.759Z,96.27
2023-03-23T01:16:18.742Z,95.86
2023-03-23T01:17:18.743Z,95.90
2023-03-23T01:18:18.720Z,96.01
2023-03-23T01:19:19.725Z,95.65
2023-03-23T01:20:18.696Z,95.76
2023-03-23T01:21:18.684Z,95.76
2023-03-23T01:22:18.679Z,95.86
2023-03-23T01:23:18.666Z,95.39
2023-03-23T01:24:18.658Z,95.35
2023-03-23T01:25:18.666Z,95.60
2023-03-23T01:26:18.630Z,95.50
2023-03-23T01:27:18.633Z,95.50
2023-03-23T01:28:18.607Z,95.60
2023-03-23T01:29:18.598Z,95.45
2023-03-23T01:30:18.580Z,95.29
2023-03-23T01:31:18.575Z,94.84
2023-03-23T01:32:18.575Z,94.94
2023-03-23T01:33:18.555Z,95.04
2023-03-23T01:34:18.540Z,95.35
2023-03-23T01:35:18.546Z,95.35
2023-03-23T01:36:18.515Z,95.15
2023-03-23T01:37:18.506Z,95.04
2023-03-23T01:38:18.499Z,95.35
2023-03-23T01:39:18.490Z,95.15
2023-03-23T01:40:18.472Z,94.23
2023-03-23T01:41:18.487Z,94.64
2023-03-23T01:42:18.449Z,94.74
2023-03-23T01:43:18.441Z,94.23
2023-03-23T01:44:18.433Z,94.43
2023-03-23T01:45:18.421Z,94.33
2023-03-23T01:46:18.409Z,94.64
2023-03-23T01:47:18.406Z,94.74
2023-03-23T01:48:18.387Z,94.43
2023-03-23T01:49:18.380Z,94.12
2023-03-23T01:50:18.358Z,94.33
2023-03-23T01:51:18.356Z,93.82
2023-03-23T01:52:18.340Z,94.02
2023-03-23T01:53:18.340Z,94.53
2023-03-23T01:54:18.324Z,94.53
2023-03-23T01:55:18.306Z,94.64
2023-03-23T01:56:18.295Z,94.33
2023-03-23T01:57:18.313Z,94.74
2023-03-23T01:58:19.283Z,93.92
2023-03-23T01:59:18.286Z,94.64
2023-03-23T02:00:18.254Z,94.74
2023-03-23T02:01:18.253Z,94.53
2023-03-23T02:02:18.226Z,94.64
2023-03-23T02:03:18.218Z,94.74
2023-03-23T02:04:18.213Z,94.84
2023-03-23T02:05:18.211Z,94.43
2023-03-23T02:06:18.185Z,94.02
2023-03-23T02:07:18.180Z,93.47
2023-03-23T02:08:18.162Z,93.57
2023-03-23T02:09:18.151Z,93.26
2023-03-23T02:10:19.139Z,92.86
2023-03-23T02:11:21.772Z,93.26
2023-03-23T02:12:18.112Z,92.96
2023-03-23T02:13:18.127Z,92.96
2023-03-23T02:14:18.095Z,93.26
2023-03-23T02:15:18.084Z,93.16
2023-03-23T02:16:18.074Z,93.47
2023-03-23T02:17:18.055Z,92.76
2023-03-23T02:18:18.044Z,92.24
2023-03-23T02:19:18.034Z,92.45
2023-03-23T02:20:18.023Z,92.35
2023-03-23T02:21:18.028Z,92.45
2023-03-23T02:22:17.998Z,92.65
2023-03-23T02:23:17.990Z,92.86
2023-03-23T02:24:17.971Z,93.47
2023-03-23T02:25:17.968Z,93.26
2023-03-23T02:26:17.960Z,92.55
2023-03-23T02:27:17.958Z,92.35
2023-03-23T02:28:17.933Z,92.30
2023-03-23T02:29:17.941Z,92.20
2023-03-23T02:30:17.906Z,92.30
2023-03-23T02:31:17.901Z,92.41
2023-03-23T02:32:17.884Z,92.45
2023-03-23T02:33:17.883Z,92.50
2023-03-23T02:34:17.870Z,92.76
2023-03-23T02:35:17.883Z,92.96
2023-03-23T02:36:17.846Z,93.16
2023-03-23T02:37:17.838Z,93.37
2023-03-23T02:38:17.815Z,93.16
2023-03-23T02:39:17.808Z,93.47
2023-03-23T02:40:17.796Z,94.08
2023-03-23T02:41:17.793Z,93.77
2023-03-23T02:42:17.796Z,95.00
2023-03-23T02:43:17.762Z,93.98
2023-03-23T02:44:17.762Z,94.33
2023-03-23T02:45:17.758Z,94.70
2023-03-23T02:46:17.721Z,95.04
2023-03-23T02:47:17.722Z,95.45
2023-03-23T02:48:17.714Z,95.35
2023-03-23T02:49:17.690Z,95.00
2023-03-23T02:50:17.681Z,95.56
2023-03-23T02:51:17.672Z,94.90
2023-03-23T02:52:17.656Z,94.94
2023-03-23T02:53:17.655Z,95.00
2023-03-23T02:54:17.638Z,95.35
2023-03-23T02:55:17.638Z,95.04
2023-03-23T02:56:17.608Z,95.25
2023-03-23T02:57:17.621Z,94.38
2023-03-23T02:58:17.617Z,94.29
2023-03-23T02:59:17.587Z,94.33
2023-03-23T03:00:17.572Z,94.59
2023-03-23T03:01:17.598Z,94.33
2023-03-23T03:02:17.542Z,94.43
2023-03-23T03:03:17.538Z,94.29
2023-03-23T03:04:17.525Z,93.98
2023-03-23T03:05:17.528Z,93.88
2023-03-23T03:06:17.500Z,93.88
2023-03-23T03:07:24.648Z,93.67
2023-03-23T03:08:17.486Z,93.47
2023-03-23T03:09:17.473Z,93.37
2023-03-23T03:10:17.543Z,93.67
2023-03-23T03:11:17.460Z,93.57
2023-03-23T03:12:17.456Z,94.08
2023-03-23T03:13:17.457Z,94.08
2023-03-23T03:14:17.408Z,94.23
2023-03-23T03:15:17.397Z,93.92
2023-03-23T03:16:17.398Z,93.98
2023-03-23T03:17:17.398Z,93.82
2023-03-23T03:18:17.389Z,93.88
2023-03-23T03:19:18.345Z,93.88
2023-03-23T03:20:17.345Z,93.92
2023-03-23T03:21:17.333Z,94.08
2023-03-23T03:22:17.316Z,93.98
2023-03-23T03:23:17.325Z,93.67
2023-03-23T03:24:17.293Z,93.47
2023-03-23T03:25:18.061Z,93.98
2023-03-23T03:26:17.276Z,93.67
2023-03-23T03:27:17.280Z,93.57
2023-03-23T03:28:17.257Z,93.77
2023-03-23T03:29:17.247Z,93.37
2023-03-23T03:30:17.234Z,93.37
2023-03-23T03:31:17.225Z,93.47
2023-03-23T03:32:17.225Z,93.37
2023-03-23T03:33:17.220Z,93.47
2023-03-23T03:34:17.192Z,93.67
2023-03-23T03:35:17.190Z,93.57
2023-03-23T03:36:17.210Z,93.37
2023-03-23T03:37:17.157Z,93.06
2023-03-23T03:38:17.148Z,93.67
2023-03-23T03:39:17.146Z,93.57
2023-03-23T03:40:17.123Z,93.67
2023-03-23T03:41:17.120Z,93.57
2023-03-23T03:42:17.111Z,93.37
2023-03-23T03:43:17.090Z,93.47
2023-03-23T03:44:17.081Z,93.16
2023-03-23T03:45:17.072Z,93.47
2023-03-23T03:46:17.051Z,93.22
2023-03-23T03:47:17.040Z,92.61
2023-03-23T03:48:17.032Z,92.30
2023-03-23T03:49:17.038Z,92.41
2023-03-23T03:50:17.024Z,92.30
2023-03-23T03:51:17.014Z,92.00
2023-03-23T03:52:16.992Z,92.10
2023-03-23T03:53:16.982Z,92.50
2023-03-23T03:54:17.955Z,92.20
2023-03-23T03:55:16.968Z,92.00
2023-03-23T03:56:16.943Z,92.20
2023-03-23T03:57:16.928Z,91.79
2023-03-23T03:58:16.917Z,92.00
2023-03-23T03:59:21.425Z,91.69
2023-03-23T04:00:16.917Z,91.39
2023-03-23T04:01:16.892Z,91.59
2023-03-23T04:02:16.882Z,91.18
2023-03-23T04:03:16.865Z,91.59
2023-03-23T04:04:16.875Z,91.89
2023-03-23T04:05:16.862Z,91.89
2023-03-23T04:06:16.833Z,91.49
2023-03-23T04:07:16.828Z,91.08
2023-03-23T04:08:16.801Z,91.89
2023-03-23T04:09:16.798Z,91.79
2023-03-23T04:10:16.791Z,91.18
2023-03-23T04:11:32.520Z,91.49
2023-03-23T04:12:17.781Z,91.28
2023-03-23T04:13:16.757Z,91.28
2023-03-23T04:14:16.732Z,91.39
2023-03-23T04:15:16.730Z,91.28
2023-03-23T04:16:16.727Z,91.59
2023-03-23T04:17:16.701Z,91.49
2023-03-23T04:18:16.694Z,91.49
2023-03-23T04:19:16.675Z,92.20
2023-03-23T04:20:16.666Z,92.41
2023-03-23T04:21:17.693Z,92.91
2023-03-23T04:22:16.658Z,93.22
2023-03-23T04:23:16.862Z,93.32
2023-03-23T04:24:23.409Z,94.24
2023-03-23T04:25:17.614Z,94.24
2023-03-23T04:26:16.623Z,95.10
2023-03-23T04:27:16.594Z,95.00
2023-03-23T04:28:16.584Z,95.41
2023-03-23T04:29:16.573Z,95.81
2023-03-23T04:30:16.552Z,95.51
2023-03-23T04:31:16.559Z,96.02
2023-03-23T04:32:16.543Z,96.22
2023-03-23T04:33:16.532Z,96.17
2023-03-23T04:34:17.519Z,96.37
2023-03-23T04:35:16.520Z,96.73
2023-03-23T04:36:16.521Z,96.78
2023-03-23T04:37:16.506Z,96.43
2023-03-23T04:38:16.469Z,96.37
2023-03-23T04:39:16.470Z,97.19
2023-03-23T04:40:16.456Z,96.27
2023-03-23T04:41:16.430Z,96.17
2023-03-23T04:42:16.430Z,96.12
2023-03-23T04:43:16.420Z,95.65
2023-03-23T04:44:16.399Z,95.92
2023-03-23T04:45:16.385Z,96.02
2023-03-23T04:46:16.374Z,95.92
2023-03-23T04:47:16.367Z,95.65
2023-03-23T04:48:16.373Z,95.65
2023-03-23T04:49:16.357Z,96.12
2023-03-23T04:50:16.348Z,95.61
2023-03-23T04:51:16.319Z,95.92
2023-03-23T04:52:16.316Z,95.20
2023-03-23T04:53:16.317Z,95.20
2023-03-23T04:54:16.302Z,95.20
2023-03-23T04:55:16.280Z,95.10
2023-03-23T04:56:16.278Z,95.31
2023-03-23T04:57:16.250Z,95.20
2023-03-23T04:58:16.237Z,95.00
2023-03-23T04:59:16.231Z,94.90
2023-03-23T05:00:16.227Z,94.18
2023-03-23T05:01:16.226Z,94.70
2023-03-23T05:02:16.188Z,94.49
2023-03-23T05:03:16.184Z,94.59
2023-03-23T05:04:16.167Z,94.45
2023-03-23T05:05:16.167Z,94.38
2023-03-23T05:06:16.140Z,93.98
2023-03-23T05:07:16.158Z,94.45
2023-03-23T05:08:16.122Z,94.90
2023-03-23T05:09:16.129Z,94.55
2023-03-23T05:10:16.117Z,94.38
2023-03-23T05:11:17.095Z,93.57
2023-03-23T05:12:16.077Z,93.77
2023-03-23T05:13:16.079Z,93.73
2023-03-23T05:14:16.056Z,93.88
2023-03-23T05:15:16.046Z,93.84
2023-03-23T05:16:16.032Z,92.91
2023-03-23T05:17:16.060Z,93.22
2023-03-23T05:18:16.017Z,93.43
2023-03-23T05:19:16.017Z,93.12
2023-03-23T05:20:15.988Z,93.02
2023-03-23T05:21:15.983Z,92.91
2023-03-23T05:22:15.986Z,92.41
2023-03-23T05:23:15.977Z,92.41
2023-03-23T05:24:15.941Z,92.41
2023-03-23T05:25:15.951Z,92.50
2023-03-23T05:26:15.928Z,92.50
2023-03-23T05:27:15.912Z,92.41
2023-03-23T05:28:15.904Z,93.43
2023-03-23T05:29:15.886Z,93.43
2023-03-23T05:30:15.905Z,93.43
2023-03-23T05:31:15.861Z,92.50
2023-03-23T05:32:15.852Z,92.20
2023-03-23T05:33:15.837Z,92.71
2023-03-23T05:34:15.830Z,92.20
2023-03-23T05:35:15.824Z,92.20
2023-03-23T05:36:15.846Z,92.10
2023-03-23T05:37:15.795Z,92.00
2023-03-23T05:38:15.787Z,92.30
2023-03-23T05:39:15.772Z,92.20
2023-03-23T05:40:15.768Z,92.50
2023-03-23T05:41:16.956Z,91.59
2023-03-23T05:42:15.734Z,91.59
2023-03-23T05:43:15.725Z,91.69
2023-03-23T05:44:15.718Z,91.79
2023-03-23T05:45:15.719Z,92.10
2023-03-23T05:46:15.690Z,91.49
2023-03-23T05:47:15.678Z,91.39
2023-03-23T05:48:15.674Z,91.79
2023-03-23T05:49:15.652Z,91.39
2023-03-23T05:50:15.644Z,91.49
2023-03-23T05:51:15.651Z,91.49
2023-03-23T05:52:15.625Z,91.49
2023-03-23T05:53:15.613Z,91.49
2023-03-23T05:54:15.599Z,91.79
2023-03-23T05:55:15.584Z,91.49
2023-03-23T05:56:15.594Z,91.28
2023-03-23T05:57:15.588Z,91.14
2023-03-23T05:58:15.551Z,91.08
2023-03-23T05:59:15.546Z,91.28
2023-03-23T06:00:15.541Z,91.08
2023-03-23T06:01:15.531Z,91.28
2023-03-23T06:02:15.515Z,90.88
2023-03-23T06:03:15.499Z,90.83
2023-03-23T06:04:15.532Z,90.67
2023-03-23T06:05:15.495Z,90.67
2023-03-23T06:06:15.467Z,90.67
2023-03-23T06:07:15.476Z,90.63
2023-03-23T06:08:15.445Z,90.67
2023-03-23T06:09:15.435Z,90.77
2023-03-23T06:10:15.430Z,91.59
2023-03-23T06:11:15.409Z,91.08
2023-03-23T06:12:15.408Z,91.08
2023-03-23T06:13:15.403Z,91.18
2023-03-23T06:14:15.402Z,90.67
2023-03-23T06:15:15.398Z,90.67
2023-03-23T06:16:15.360Z,90.47
2023-03-23T06:17:15.342Z,90.47
2023-03-23T06:18:15.331Z,90.12
2023-03-23T06:19:15.314Z,89.71
2023-03-23T06:20:15.348Z,90.01
2023-03-23T06:21:18.548Z,90.36
2023-03-23T06:22:15.285Z,90.32
2023-03-23T06:23:15.267Z,90.06
2023-03-23T06:24:15.266Z,90.01
2023-03-23T06:25:15.299Z,90.01
2023-03-23T06:26:15.244Z,90.22
2023-03-23T06:27:17.027Z,90.01
2023-03-23T06:28:15.225Z,90.01
2023-03-23T06:29:15.225Z,90.12
2023-03-23T06:30:15.202Z,90.42
2023-03-23T06:31:15.190Z,90.01
2023-03-23T06:32:15.173Z,90.22
2023-03-23T06:33:15.161Z,90.01
2023-03-23T06:34:15.147Z,89.92
2023-03-23T06:35:15.148Z,90.01
2023-03-23T06:36:15.173Z,90.01
2023-03-23T06:37:15.117Z,90.32
2023-03-23T06:38:15.105Z,89.81
2023-03-23T06:39:15.090Z,90.22
2023-03-23T06:40:15.133Z,90.08
2023-03-23T06:41:15.079Z,90.01
2023-03-23T06:42:15.059Z,90.12
2023-03-23T06:43:15.050Z,90.42
2023-03-23T06:44:15.059Z,90.08
2023-03-23T06:45:15.041Z,90.32
2023-03-23T06:46:15.027Z,89.67
2023-03-23T06:47:15.016Z,89.87
2023-03-23T06:48:15.018Z,89.87
2023-03-23T06:49:14.985Z,89.57
2023-03-23T06:50:14.970Z,89.26
2023-03-23T06:51:14.956Z,89.16
2023-03-23T06:52:14.945Z,89.26
2023-03-23T06:53:14.931Z,90.08
2023-03-23T06:54:14.940Z,89.77
2023-03-23T06:55:14.913Z,89.67
2023-03-23T06:56:14.899Z,89.57
2023-03-23T06:57:14.893Z,88.85
2023-03-23T06:58:14.880Z,88.65
2023-03-23T06:59:14.865Z,88.65
2023-03-23T07:00:14.862Z,89.16
2023-03-23T07:01:14.876Z,89.06
2023-03-23T07:02:14.832Z,88.40
2023-03-23T07:03:14.833Z,88.06
2023-03-23T07:04:14.817Z,88.20
2023-03-23T07:05:14.795Z,88.36
2023-03-23T07:06:14.787Z,86.94
2023-03-23T07:07:14.795Z,86.83
2023-03-23T07:08:14.763Z,86.83
2023-03-23T07:09:14.758Z,87.45
2023-03-23T07:10:14.747Z,86.94
2023-03-23T07:11:14.734Z,86.63
2023-03-23T07:12:14.741Z,86.69
2023-03-23T07:13:14.712Z,86.49
2023-03-23T07:14:14.697Z,86.49
2023-03-23T07:15:14.694Z,86.29
2023-03-23T07:16:14.679Z,86.39
2023-03-23T07:17:14.697Z,86.49
2023-03-23T07:18:14.667Z,86.33
2023-03-23T07:19:14.634Z,86.53
2023-03-23T07:20:14.631Z,86.83
2023-03-23T07:21:14.624Z,86.53
2023-03-23T07:22:14.605Z,86.63
2023-03-23T07:23:14.611Z,87.24
2023-03-23T07:24:14.582Z,86.88
2023-03-23T07:25:14.642Z,87.14
2023-03-23T07:26:14.559Z,87.59
2023-03-23T07:27:14.563Z,86.98
2023-03-23T07:28:14.545Z,88.10
2023-03-23T07:29:14.533Z,88.00
2023-03-23T07:30:14.512Z,88.36
2023-03-23T07:31:14.528Z,87.75
2023-03-23T07:32:14.499Z,87.79
2023-03-23T07:33:14.516Z,88.31
2023-03-23T07:34:14.470Z,88.40
2023-03-23T07:35:14.452Z,88.31
2023-03-23T07:36:14.476Z,88.10
2023-03-23T07:37:14.428Z,88.10
2023-03-23T07:38:14.418Z,88.20
2023-03-23T07:39:14.423Z,88.10
2023-03-23T07:40:14.402Z,88.10
2023-03-23T07:41:14.399Z,88.10
2023-03-23T07:42:14.387Z,87.90
2023-03-23T07:43:14.363Z,88.00
2023-03-23T07:44:14.355Z,88.40
2023-03-23T07:45:14.350Z,88.51
2023-03-23T07:46:14.336Z,88.51
2023-03-23T07:47:14.318Z,88.20
2023-03-23T07:48:21.164Z,88.20
2023-03-23T07:49:15.318Z,87.90
2023-03-23T07:50:14.308Z,87.90
2023-03-23T07:51:14.269Z,88.31
2023-03-23T07:52:14.261Z,88.00
2023-03-23T07:53:14.278Z,87.90
2023-03-23T07:54:14.238Z,87.90
2023-03-23T07:55:14.232Z,88.31
2023-03-23T07:56:14.241Z,88.40
2023-03-23T07:57:14.200Z,88.00
2023-03-23T07:58:14.193Z,87.96
2023-03-23T07:59:14.204Z,88.00
2023-03-23T08:00:14.169Z,88.00
2023-03-23T08:01:14.162Z,87.79
2023-03-23T08:02:14.147Z,88.20
2023-03-23T08:03:14.129Z,88.00
2023-03-23T08:04:14.136Z,88.20
2023-03-23T08:05:14.137Z,87.59
2023-03-23T08:06:14.123Z,87.08
2023-03-23T08:07:14.098Z,88.10
2023-03-23T08:08:15.103Z,88.00
2023-03-23T08:09:14.073Z,87.49
2023-03-23T08:10:14.058Z,87.59
2023-03-23T08:11:14.049Z,87.49
2023-03-23T08:12:14.032Z,86.47
2023-03-23T08:13:14.028Z,86.88
2023-03-23T08:14:16.705Z,86.94
2023-03-23T08:15:15.015Z,86.88
2023-03-23T08:16:13.984Z,86.22
2023-03-23T08:17:13.988Z,86.63
2023-03-23T08:18:13.964Z,86.33
2023-03-23T08:19:14.049Z,87.24
2023-03-23T08:20:13.956Z,87.45
2023-03-23T08:21:13.951Z,87.55
2023-03-23T08:22:13.922Z,87.79
2023-03-23T08:23:13.914Z,88.10
2023-03-23T08:24:13.893Z,87.38
2023-03-23T08:25:13.884Z,87.04
2023-03-23T08:26:13.870Z,87.38
2023-03-23T08:27:13.854Z,87.38
2023-03-23T08:28:13.853Z,86.68
2023-03-23T08:29:13.855Z,86.98
2023-03-23T08:30:13.823Z,86.98
2023-03-23T08:31:13.821Z,87.29
2023-03-23T08:32:13.806Z,87.29
2023-03-23T08:33:13.792Z,87.38
2023-03-23T08:34:13.873Z,86.68
2023-03-23T08:35:13.789Z,86.88
2023-03-23T08:36:13.783Z,86.68
2023-03-23T08:37:13.761Z,86.83
2023-03-23T08:38:13.733Z,86.74
2023-03-23T08:39:13.713Z,86.98
2023-03-23T08:40:14.178Z,86.77
2023-03-23T08:41:13.708Z,87.08
2023-03-23T08:42:13.699Z,86.88
2023-03-23T08:43:13.668Z,86.27
2023-03-23T08:44:13.669Z,86.68
2023-03-23T08:45:13.646Z,86.88
2023-03-23T08:46:13.639Z,88.04
2023-03-23T08:47:13.640Z,88.45
2023-03-23T08:48:13.629Z,88.55
2023-03-23T08:49:13.603Z,88.90
2023-03-23T08:50:13.598Z,90.12
2023-03-23T08:51:13.596Z,90.16
2023-03-23T08:52:13.585Z,90.51
2023-03-23T08:53:13.609Z,91.63
2023-03-23T08:54:13.565Z,92.35
2023-03-23T08:55:13.542Z,92.39
2023-03-23T08:56:13.543Z,91.67
2023-03-23T08:57:13.562Z,91.25
2023-03-23T08:58:13.535Z,91.35
2023-03-23T08:59:13.506Z,91.66
2023-03-23T09:00:13.491Z,92.27
2023-03-23T09:01:13.471Z,92.42
2023-03-23T09:02:13.490Z,92.93
2023-03-23T09:03:13.482Z,93.44
2023-03-23T09:04:13.436Z,93.44
2023-03-23T09:05:13.424Z,92.97
2023-03-23T09:06:13.444Z,93.79
2023-03-23T09:07:13.405Z,93.79
2023-03-23T09:08:20.530Z,94.10
2023-03-23T09:09:13.377Z,94.46
2023-03-23T09:10:13.406Z,94.77
2023-03-23T09:11:13.352Z,94.97
2023-03-23T09:12:13.345Z,95.48
2023-03-23T09:13:13.339Z,95.89
2023-03-23T09:14:13.318Z,96.04
2023-03-23T09:15:13.701Z,95.94
2023-03-23T09:16:13.313Z,95.94
2023-03-23T09:17:13.294Z,96.39
2023-03-23T09:18:13.277Z,95.06
2023-03-23T09:19:13.266Z,95.37
2023-03-23T09:20:13.256Z,95.22
2023-03-23T09:21:18.722Z,95.12
2023-03-23T09:22:13.260Z,94.60
2023-03-23T09:23:13.228Z,94.65
2023-03-23T09:24:14.083Z,95.43
2023-03-23T09:25:13.475Z,94.60
2023-03-23T09:26:13.188Z,94.51
2023-03-23T09:27:13.196Z,95.32
2023-03-23T09:28:13.168Z,95.22
2023-03-23T09:29:13.152Z,95.02
2023-03-23T09:30:13.150Z,95.73
2023-03-23T09:31:13.154Z,95.53
2023-03-23T09:32:13.126Z,95.94
2023-03-23T09:33:13.115Z,95.69
2023-03-23T09:34:13.098Z,95.89
2023-03-23T09:35:13.086Z,95.69
2023-03-23T09:36:13.126Z,95.75
2023-03-23T09:37:13.096Z,95.95
2023-03-23T09:38:13.054Z,96.97
2023-03-23T09:39:13.042Z,96.97
2023-03-23T09:40:13.099Z,96.77
2023-03-23T09:41:13.018Z,96.21
2023-03-23T09:42:13.008Z,96.42
2023-03-23T09:43:13.068Z,96.83
2023-03-23T09:44:13.001Z,96.72
2023-03-23T09:45:12.973Z,96.51
2023-03-23T09:46:12.962Z,97.03
2023-03-23T09:47:12.980Z,96.62
2023-03-23T09:48:12.942Z,96.51
2023-03-23T09:49:12.931Z,96.51
2023-03-23T09:50:12.953Z,97.08
2023-03-23T09:51:12.911Z,96.67
2023-03-23T09:52:12.894Z,96.51
2023-03-23T09:53:12.904Z,96.36
2023-03-23T09:54:12.891Z,96.56
2023-03-23T09:55:12.865Z,96.97
2023-03-23T09:56:12.878Z,96.46
2023-03-23T09:57:12.848Z,96.97
2023-03-23T09:58:12.857Z,97.08
2023-03-23T09:59:12.820Z,97.17
2023-03-23T10:00:12.826Z,97.38
2023-03-23T10:01:12.795Z,96.87
2023-03-23T10:02:12.779Z,96.30
2023-03-23T10:03:12.790Z,95.95
2023-03-23T10:04:12.766Z,95.64
2023-03-23T10:05:12.756Z,96.15
2023-03-23T10:06:12.735Z,95.75
2023-03-23T10:07:12.727Z,96.26
2023-03-23T10:08:12.722Z,95.75
2023-03-23T10:09:12.720Z,95.64
2023-03-23T10:10:12.691Z,96.15
2023-03-23T10:11:12.684Z,96.15
2023-03-23T10:12:12.731Z,95.75
2023-03-23T10:13:12.660Z,95.64
2023-03-23T10:14:12.654Z,95.95
2023-03-23T10:15:12.645Z,95.54
2023-03-23T10:16:12.624Z,95.95
2023-03-23T10:17:12.624Z,95.95
2023-03-23T10:18:12.612Z,95.95
2023-03-23T10:19:12.592Z,95.48
2023-03-23T10:20:12.602Z,95.44
2023-03-23T10:21:12.571Z,95.23
2023-03-23T10:22:12.556Z,95.75
2023-03-23T10:23:12.549Z,95.23
2023-03-23T10:24:12.530Z,95.48
2023-03-23T10:25:12.525Z,95.23
2023-03-23T10:26:12.548Z,94.93
2023-03-23T10:27:12.503Z,95.13
2023-03-23T10:28:12.513Z,94.82
2023-03-23T10:29:12.480Z,95.38
2023-03-23T10:30:12.464Z,94.42
2023-03-23T10:31:12.466Z,94.32
2023-03-23T10:32:12.465Z,94.36
2023-03-23T10:33:12.437Z,94.56
2023-03-23T10:34:12.419Z,94.87
2023-03-23T10:35:12.418Z,94.82
2023-03-23T10:36:12.432Z,94.62
2023-03-23T10:37:12.413Z,94.32
2023-03-23T10:38:12.387Z,95.19
2023-03-23T10:39:12.379Z,94.11
2023-03-23T10:40:12.360Z,94.17
2023-03-23T10:41:12.350Z,93.70
2023-03-23T10:42:12.340Z,93.09
2023-03-23T10:43:12.343Z,93.60
2023-03-23T10:44:12.337Z,93.55
2023-03-23T10:45:12.300Z,93.35
2023-03-23T10:46:17.565Z,92.54
2023-03-23T10:47:13.285Z,92.69
2023-03-23T10:48:12.274Z,92.45
2023-03-23T10:49:12.270Z,92.05
2023-03-23T10:50:12.244Z,91.65
2023-03-23T10:51:12.238Z,91.24
2023-03-23T10:52:12.245Z,90.57
2023-03-23T10:53:12.212Z,90.53
2023-03-23T10:54:12.198Z,90.36
2023-03-23T10:55:12.193Z,90.36
2023-03-23T10:56:12.173Z,89.96
2023-03-23T10:57:12.187Z,90.06
2023-03-23T10:58:12.154Z,89.34
2023-03-23T10:59:12.143Z,89.00
2023-03-23T11:00:12.163Z,88.63
2023-03-23T11:01:12.126Z,89.00
2023-03-23T11:02:15.710Z,88.32
2023-03-23T11:03:13.115Z,88.93
2023-03-23T11:04:12.080Z,89.45
2023-03-23T11:05:20.064Z,88.32
2023-03-23T11:06:13.071Z,88.53
2023-03-23T11:07:12.052Z,88.12
2023-03-23T11:08:12.042Z,88.53
2023-03-23T11:09:12.028Z,88.32
2023-03-23T11:10:12.018Z,88.02
2023-03-23T11:11:12.012Z,87.82
2023-03-23T11:12:11.992Z,87.41
2023-03-23T11:13:12.024Z,86.90
2023-03-23T11:14:11.970Z,87.24
2023-03-23T11:15:11.966Z,86.80
2023-03-23T11:16:11.972Z,87.00
2023-03-23T11:17:15.863Z,86.49
2023-03-23T11:18:11.947Z,86.59
2023-03-23T11:19:11.938Z,86.69
2023-03-23T11:20:11.901Z,85.98
2023-03-23T11:21:11.911Z,85.98
2023-03-23T11:22:11.877Z,85.13
2023-03-23T11:23:11.873Z,85.02
2023-03-23T11:24:11.889Z,85.22
2023-03-23T11:25:14.040Z,85.63
2023-03-23T11:26:11.832Z,84.82
2023-03-23T11:27:11.840Z,84.61
2023-03-23T11:28:11.811Z,84.98
2023-03-23T11:29:11.802Z,84.27
2023-03-23T11:30:11.809Z,83.72
2023-03-23T11:31:11.776Z,82.15
2023-03-23T11:32:11.784Z,82.56
2023-03-23T11:33:11.763Z,82.01
2023-03-23T11:34:11.750Z,82.38
2023-03-23T11:35:16.334Z,79.84
2023-03-23T11:36:11.763Z,79.74
2023-03-23T11:37:11.715Z,80.24
2023-03-23T11:38:11.693Z,80.24
2023-03-23T11:39:11.689Z,79.80
2023-03-23T11:40:11.688Z,79.60
2023-03-23T11:41:11.675Z,79.25
2023-03-23T11:42:11.656Z,78.55
2023-03-23T11:43:11.640Z,78.64
2023-03-23T11:44:11.647Z,77.43
2023-03-23T11:45:11.636Z,77.12
2023-03-23T11:46:11.609Z,78.04
2023-03-23T11:47:11.604Z,76.95
2023-03-23T11:48:11.659Z,78.55
2023-03-23T11:49:23.258Z,79.02
2023-03-23T11:50:12.580Z,77.70
2023-03-23T11:51:11.565Z,78.27
2023-03-23T11:52:11.545Z,76.64
2023-03-23T11:53:11.525Z,76.28
2023-03-23T11:54:11.520Z,76.07
2023-03-23T11:55:11.505Z,76.88
2023-03-23T11:56:11.521Z,76.88
2023-03-23T11:57:11.489Z,76.64
2023-03-23T11:58:11.474Z,77.15
2023-03-23T11:59:11.472Z,77.76
2023-03-23T12:00:11.448Z,76.34
2023-03-23T12:01:11.436Z,76.95
2023-03-23T12:02:16.997Z,75.43
2023-03-23T12:03:12.409Z,75.63
2023-03-23T12:04:11.438Z,75.83
2023-03-23T12:05:11.414Z,75.32
2023-03-23T12:06:11.385Z,75.43
2023-03-23T12:07:11.378Z,76.34
2023-03-23T12:08:11.374Z,76.14
2023-03-23T12:09:11.352Z,75.93
2023-03-23T12:10:11.346Z,76.58
2023-03-23T12:11:11.324Z,76.17
2023-03-23T12:12:11.325Z,76.28
2023-03-23T12:13:13.777Z,76.68
2023-03-23T12:14:11.291Z,76.78
2023-03-23T12:15:11.375Z,76.28
2023-03-23T12:16:11.265Z,76.37
2023-03-23T12:17:11.260Z,75.97
2023-03-23T12:18:11.248Z,75.16
2023-03-23T12:19:11.238Z,75.67
2023-03-23T12:20:11.245Z,76.21
2023-03-23T12:21:11.250Z,76.48
2023-03-23T12:22:11.194Z,76.92
2023-03-23T12:23:11.203Z,76.37
2023-03-23T12:24:11.188Z,75.60
2023-03-23T12:25:11.165Z,76.31
2023-03-23T12:26:11.153Z,75.49
2023-03-23T12:27:11.140Z,75.40
2023-03-23T12:28:11.129Z,76.92
2023-03-23T12:29:11.131Z,77.02
2023-03-23T12:30:11.100Z,77.33
2023-03-23T12:31:11.105Z,76.92
2023-03-23T12:32:11.090Z,77.06
2023-03-23T12:33:11.074Z,77.83
2023-03-23T12:34:11.080Z,77.53
2023-03-23T12:35:11.052Z,76.82
2023-03-23T12:36:11.074Z,76.82
2023-03-23T12:37:11.030Z,77.12
2023-03-23T12:38:11.048Z,76.31
2023-03-23T12:39:11.008Z,75.80
2023-03-23T12:40:11.016Z,76.51
2023-03-23T12:41:10.997Z,77.22
2023-03-23T12:42:10.978Z,76.37
2023-03-23T12:43:10.964Z,76.68
2023-03-23T12:44:10.955Z,76.14
2023-03-23T12:45:10.944Z,75.93
2023-03-23T12:46:10.932Z,74.92
2023-03-23T12:47:10.924Z,75.09
2023-03-23T12:48:10.910Z,74.98
2023-03-23T12:49:10.913Z,75.96
2023-03-23T12:50:10.921Z,75.46
2023-03-23T12:51:10.870Z,75.05
2023-03-23T12:52:10.884Z,75.25